Time;durP1;ratioP1;P1;durP2;ratioP2;P2;SDS_P1;SDS_P2;PMS_P1;PMS_P2;Temp;Humidity;BMP_temperature;BMP_pressure;BME280_temperature;BME280_humidity;BME280_pressure;Samples;Min_cycle;Max_cycle;Signal;HPM_P1;HPM_P2
2022/08/05 00:00:04;;;;;;;2.03;1.92;;;;;;;25.37;46.10;99028.28;341852;28;1770;-71
2022/08/05 00:00:17;;;;;;;2.30;2.10;;;;;;;25.24;46.51;99019.91;342328;28;1945;-71
2022/08/05 00:00:29;;;;;;;2.90;2.10;;;;;;;25.27;46.23;99023.09;342175;28;1399;-71
2022/08/05 00:00:41;;;;;;;3.72;2.08;;;;;;;25.31;46.11;99028.91;343606;28;1241;-71
2022/08/05 00:01:01;;;;;;;5.18;2.15;;;;;;;25.36;46.03;99023.97;343420;28;1185;-71
2022/08/05 00:01:33;;;;;;;2.83;2.17;;;;;;;25.43;45.99;99016.97;342558;28;1642;-71
2022/08/05 00:01:59;;;;;;;2.25;2.00;;;;;;;25.44;45.78;99020.50;343284;28;1277;-70
2022/08/05 00:02:22;;;;;;;2.53;1.88;;;;;;;25.39;45.85;99018.31;343871;28;1217;-70
2022/08/05 00:02:36;;;;;;;2.28;2.00;;;;;;;25.40;45.90;99022.63;342568;28;1796;-71
2022/08/05 00:02:54;;;;;;;2.30;2.10;;;;;;;25.39;45.89;99020.97;343269;28;1214;-71
2022/08/05 00:03:06;;;;;;;3.13;2.30;;;;;;;25.41;46.06;99024.28;342039;28;1236;-72
2022/08/05 00:03:26;;;;;;;2.53;2.10;;;;;;;25.45;46.19;99020.31;342275;28;1176;-71
2022/08/05 00:03:43;;;;;;;2.22;2.03;;;;;;;25.42;46.36;99020.66;342022;28;1882;-71
2022/08/05 00:03:56;;;;;;;2.33;2.00;;;;;;;25.43;45.91;99016.16;341748;28;1569;-71
2022/08/05 00:04:08;;;;;;;2.83;2.00;;;;;;;25.44;45.93;99021.31;340912;29;1096;-71
2022/08/05 00:04:24;;;;;;;3.13;2.00;;;;;;;25.49;45.95;99021.69;341758;28;1692;-70
2022/08/05 00:04:36;;;;;;;2.40;1.90;;;;;;;25.54;45.98;99017.72;341902;28;1765;-70
2022/08/05 00:04:51;;;;;;;3.33;2.00;;;;;;;25.58;45.94;99019.06;341933;28;1828;-71
2022/08/05 00:05:07;;;;;;;4.13;2.03;;;;;;;25.57;46.35;99022.69;342764;28;1989;-71
2022/08/05 00:05:39;;;;;;;2.75;2.10;;;;;;;25.61;45.82;99024.03;342937;28;1773;-71
2022/08/05 00:06:11;;;;;;;2.40;2.15;;;;;;;25.63;45.66;99022.88;342612;28;1567;-71
2022/08/05 00:06:44;;;;;;;5.50;2.10;;;;;;;25.67;45.53;99034.03;342781;28;1464;-71
2022/08/05 00:06:58;;;;;;;2.80;1.95;;;;;;;25.65;46.13;99028.03;343056;28;1405;-71
2022/08/05 00:07:10;;;;;;;2.30;2.10;;;;;;;25.67;46.35;99028.72;343815;28;1208;-71
2022/08/05 00:07:42;;;;;;;3.28;2.17;;;;;;;25.70;45.82;99031.06;342581;28;1754;-71
2022/08/05 00:08:12;;;;;;;2.90;2.00;;;;;;;25.65;46.06;99033.38;342655;28;1654;-71
2022/08/05 00:08:44;;;;;;;6.70;2.00;;;;;;;25.67;45.84;99031.38;342690;28;1626;-70
2022/08/05 00:08:59;;;;;;;6.60;2.05;;;;;;;25.71;45.57;99030.03;343269;28;1310;-70
2022/08/05 00:09:11;;;;;;;2.50;2.00;;;;;;;25.69;45.60;99032.03;344155;28;1047;-70
2022/08/05 00:09:30;;;;;;;3.30;2.00;;;;;;;25.69;45.39;99037.38;342853;28;831;-70
2022/08/05 00:09:42;;;;;;;5.00;2.13;;;;;;;25.67;45.12;99042.03;342358;28;1089;-70
2022/08/05 00:09:54;;;;;;;4.30;2.13;;;;;;;25.65;45.26;99036.03;342459;28;1045;-70
2022/08/05 00:10:07;;;;;;;3.95;2.10;;;;;;;25.63;45.29;99038.00;342791;28;1269;-71
2022/08/05 00:10:21;;;;;;;3.88;2.20;;;;;;;25.62;45.32;99042.50;342230;28;1686;-71
2022/08/05 00:10:38;;;;;;;3.95;2.22;;;;;;;25.63;45.31;99043.34;342593;28;1066;-71
2022/08/05 00:10:50;;;;;;;5.35;2.13;;;;;;;25.58;45.37;99045.66;342702;28;1766;-71
2022/08/05 00:11:05;;;;;;;5.05;2.13;;;;;;;25.59;45.32;99044.66;342548;28;1552;-71
2022/08/05 00:11:34;;;;;;;3.92;2.10;;;;;;;25.54;45.49;99039.00;341533;28;1726;-70
2022/08/05 00:12:00;;;;;;;3.28;2.50;;;;;;;25.42;45.57;99049.91;342291;28;1772;-70
2022/08/05 00:12:13;;;;;;;4.20;2.47;;;;;;;25.42;45.87;99051.75;342468;28;1051;-70
2022/08/05 00:12:25;;;;;;;5.07;2.33;;;;;;;25.34;45.83;99055.22;343496;28;1358;-70
2022/08/05 00:12:37;;;;;;;5.00;2.30;;;;;;;25.31;45.89;99052.84;342582;28;1849;-70
2022/08/05 00:13:07;;;;;;;2.45;2.10;;;;;;;25.39;46.01;99052.06;343467;28;1177;-71
2022/08/05 00:13:31;;;;;;;2.47;2.20;;;;;;;25.42;45.93;99057.06;343621;28;1149;-71
2022/08/05 00:13:50;;;;;;;4.00;2.30;;;;;;;25.42;45.93;99057.91;343137;28;1560;-71
2022/08/05 00:14:04;;;;;;;5.57;2.22;;;;;;;25.43;45.81;99048.91;342522;28;1369;-71
2022/08/05 00:14:27;;;;;;;3.78;2.10;;;;;;;25.43;45.99;99061.38;342405;28;1146;-70
2022/08/05 00:14:42;;;;;;;4.97;2.40;;;;;;;25.41;45.74;99050.91;341628;28;1686;-71
2022/08/05 00:14:54;;;;;;;4.18;2.38;;;;;;;25.41;45.83;99056.22;343075;28;1601;-70
2022/08/05 00:15:06;;;;;;;3.25;2.28;;;;;;;25.37;45.73;99056.72;342148;28;2000;-70
2022/08/05 00:15:38;;;;;;;4.10;2.30;;;;;;;25.35;45.98;99051.53;341873;28;1898;-71
2022/08/05 00:16:12;;;;;;;4.15;2.33;;;;;;;25.43;45.95;99056.91;342505;28;1092;-70
2022/08/05 00:16:25;;;;;;;3.50;2.50;;;;;;;25.42;45.79;99047.25;342468;28;1137;-71
2022/08/05 00:16:46;;;;;;;2.50;2.30;;;;;;;25.44;45.66;99055.91;343380;28;1623;-70
2022/08/05 00:17:04;;;;;;;3.20;2.20;;;;;;;25.46;45.68;99056.59;344879;28;1483;-70
2022/08/05 00:17:30;;;;;;;4.00;2.30;;;;;;;25.49;45.27;99063.41;344745;28;1055;-71
2022/08/05 00:17:42;;;;;;;3.30;2.20;;;;;;;25.47;45.16;99052.94;342269;28;1815;-70
2022/08/05 00:17:58;;;;;;;3.55;2.20;;;;;;;25.46;45.10;99059.25;342120;28;1717;-70
2022/08/05 00:18:13;;;;;;;2.83;2.30;;;;;;;25.46;45.32;99056.59;343029;28;1684;-71
2022/08/05 00:18:32;;;;;;;3.50;2.30;;;;;;;25.39;45.47;99052.88;343741;28;1043;-71
2022/08/05 00:18:46;;;;;;;5.97;2.30;;;;;;;25.39;45.60;99063.53;343056;28;1523;-71
2022/08/05 00:18:59;;;;;;;6.20;2.28;;;;;;;25.41;45.29;99058.88;342638;28;1245;-71
2022/08/05 00:19:11;;;;;;;4.00;2.17;;;;;;;25.43;44.96;99058.72;343080;28;1067;-71
2022/08/05 00:19:24;;;;;;;5.13;2.08;;;;;;;25.43;45.18;99059.56;343832;28;1051;-72
2022/08/05 00:19:51;;;;;;;4.20;2.17;;;;;;;25.48;44.73;99072.41;342364;28;1785;-71
2022/08/05 00:20:13;;;;;;;2.90;2.10;;;;;;;25.51;44.78;99061.41;342396;28;1544;-71
2022/08/05 00:20:31;;;;;;;3.72;2.28;;;;;;;25.47;45.87;99066.25;342214;28;1438;-71
2022/08/05 00:20:43;;;;;;;6.15;2.38;;;;;;;25.29;44.89;99068.13;342588;28;1704;-71
2022/08/05 00:20:59;;;;;;;5.63;2.20;;;;;;;25.18;44.88;99074.53;342878;28;1532;-71
2022/08/05 00:21:13;;;;;;;4.32;2.17;;;;;;;25.23;44.56;99068.78;343815;28;1058;-71
2022/08/05 00:21:25;;;;;;;4.93;2.20;;;;;;;25.27;44.44;99062.16;343141;28;2364;-70
2022/08/05 00:21:41;;;;;;;5.35;2.20;;;;;;;25.31;44.37;99064.34;342201;28;1781;-70
2022/08/05 00:21:53;;;;;;;3.97;2.15;;;;;;;25.34;44.41;99063.19;342823;28;1770;-70
2022/08/05 00:22:05;;;;;;;3.90;2.10;;;;;;;25.37;44.39;99062.03;341879;28;1778;-70
2022/08/05 00:22:22;;;;;;;3.58;2.00;;;;;;;25.40;44.24;99062.56;341955;28;1737;-70
2022/08/05 00:22:35;;;;;;;3.53;2.17;;;;;;;25.42;44.25;99065.88;342682;28;1402;-70
2022/08/05 00:22:47;;;;;;;4.93;2.20;;;;;;;25.46;44.08;99066.41;344217;28;1282;-70
2022/08/05 00:23:11;;;;;;;3.60;2.05;;;;;;;25.51;43.60;99066.75;342147;28;1590;-70
2022/08/05 00:23:24;;;;;;;4.10;2.30;;;;;;;25.52;43.53;99068.44;342396;28;1025;-70
2022/08/05 00:23:56;;;;;;;2.55;2.10;;;;;;;25.42;43.81;99079.19;342315;28;1750;-70
2022/08/05 00:24:21;;;;;;;2.17;1.90;;;;;;;25.29;43.97;99073.47;342625;28;1192;-70
2022/08/05 00:24:35;;;;;;;2.90;2.00;;;;;;;25.34;43.61;99071.16;342211;28;2122;-70
2022/08/05 00:24:53;;;;;;;4.07;2.00;;;;;;;25.39;43.56;99074.16;342896;28;1706;-70
2022/08/05 00:25:06;;;;;;;3.63;2.10;;;;;;;25.41;43.56;99072.19;342624;28;1467;-70
2022/08/05 00:25:23;;;;;;;6.50;2.35;;;;;;;25.29;43.48;99081.44;343767;28;1009;-70
2022/08/05 00:25:35;;;;;;;10.80;2.45;;;;;;;25.29;43.42;99086.75;342180;28;1817;-70
2022/08/05 00:25:57;;;;;;;3.83;2.40;;;;;;;25.21;43.63;99086.69;342300;28;1270;-70
2022/08/05 00:26:10;;;;;;;3.03;2.22;;;;;;;25.27;43.45;99083.44;342474;28;1103;-70
2022/08/05 00:26:22;;;;;;;3.15;2.30;;;;;;;25.20;43.44;99085.03;343060;28;1194;-70
2022/08/05 00:26:34;;;;;;;3.67;2.28;;;;;;;25.03;43.80;99079.63;343050;28;1730;-70
2022/08/05 00:26:45;;;;;;;3.58;2.20;;;;;;;25.07;43.61;99091.63;342726;28;1484;-69
2022/08/05 00:27:03;;;;;;;2.53;2.00;;;;;;;24.94;43.52;99093.84;344538;28;1177;-70
2022/08/05 00:27:29;;;;;;;2.30;2.10;;;;;;;25.03;43.35;99100.91;344406;28;1865;-70
2022/08/05 00:27:47;;;;;;;6.22;2.20;;;;;;;25.08;42.72;99093.28;343511;28;1087;-71
2022/08/05 00:28:01;;;;;;;6.88;2.25;;;;;;;25.21;42.95;99092.00;342995;28;2812;-71
2022/08/05 00:28:14;;;;;;;5.18;2.13;;;;;;;25.26;42.67;99087.09;343532;28;1801;-71
2022/08/05 00:28:32;;;;;;;3.92;2.00;;;;;;;25.32;41.93;99089.13;343561;28;1043;-71
2022/08/05 00:28:44;;;;;;;3.58;2.00;;;;;;;25.39;42.26;99090.13;344010;28;1578;-71
2022/08/05 00:28:57;;;;;;;5.35;2.10;;;;;;;25.43;41.91;99083.50;343712;28;1245;-71
2022/08/05 00:29:09;;;;;;;4.60;2.00;;;;;;;25.49;41.89;99090.03;343844;28;1275;-71
2022/08/05 00:29:21;;;;;;;3.63;2.00;;;;;;;25.49;41.44;99080.22;343127;28;2330;-71
2022/08/05 00:29:36;;;;;;;3.63;2.05;;;;;;;25.51;41.74;99083.56;342575;28;1940;-70
2022/08/05 00:29:49;;;;;;;4.25;2.17;;;;;;;25.54;41.66;99092.22;342341;28;1726;-70
2022/08/05 00:30:01;;;;;;;3.33;2.22;;;;;;;25.57;41.71;99091.88;343060;28;1170;-70
2022/08/05 00:30:14;;;;;;;6.00;2.15;;;;;;;25.57;42.04;99087.38;342843;28;1655;-70
2022/08/05 00:30:26;;;;;;;6.20;2.17;;;;;;;25.60;42.00;99091.59;342382;28;4235;-70
2022/08/05 00:30:43;;;;;;;4.07;2.10;;;;;;;25.61;42.21;99088.72;343429;28;1757;-70
2022/08/05 00:31:04;;;;;;;3.30;2.25;;;;;;;25.61;42.34;99093.22;342305;28;1409;-70
2022/08/05 00:31:18;;;;;;;4.13;2.15;;;;;;;25.63;42.52;99097.38;342518;28;1153;-71
2022/08/05 00:31:50;;;;;;;2.40;2.05;;;;;;;25.65;42.09;99097.25;342474;28;1565;-71
2022/08/05 00:32:22;;;;;;;2.95;1.98;;;;;;;25.70;41.54;99097.59;342997;28;1645;-71
2022/08/05 00:32:36;;;;;;;2.95;2.10;;;;;;;25.73;41.42;99102.59;342795;28;1916;-71
2022/08/05 00:32:51;;;;;;;3.08;2.00;;;;;;;25.75;41.80;99095.28;343049;28;1382;-71
2022/08/05 00:33:04;;;;;;;2.55;1.90;;;;;;;25.73;41.69;99096.44;342392;28;1290;-71
2022/08/05 00:33:26;;;;;;;3.22;1.80;;;;;;;25.76;41.17;99101.47;341904;28;1899;-71
2022/08/05 00:33:58;;;;;;;2.17;1.98;;;;;;;25.79;41.27;99099.28;342974;28;1506;-70
2022/08/05 00:34:30;;;;;;;2.97;1.90;;;;;;;25.82;40.87;99101.63;342528;28;1463;-70
2022/08/05 00:35:02;;;;;;;2.53;2.03;;;;;;;25.81;40.73;99094.63;342453;28;1428;-70
2022/08/05 00:35:18;;;;;;;3.63;2.00;;;;;;;25.83;40.81;99095.31;342298;28;1649;-70
2022/08/05 00:35:31;;;;;;;4.78;2.00;;;;;;;25.84;40.66;99090.84;342158;28;1905;-70
2022/08/05 00:35:44;;;;;;;3.28;2.00;;;;;;;25.83;40.87;99095.31;342898;28;1817;-70
2022/08/05 00:36:16;;;;;;;3.25;1.90;;;;;;;25.87;40.90;99096.66;341863;28;1801;-71
2022/08/05 00:36:48;;;;;;;4.38;2.03;;;;;;;25.96;40.59;99096.69;342429;28;1499;-72
2022/08/05 00:37:20;;;;;;;3.47;1.80;;;;;;;25.98;40.62;99097.38;342610;28;1456;-72
2022/08/05 00:37:33;;;;;;;3.63;1.85;;;;;;;26.00;40.82;99100.72;342714;28;1051;-70
2022/08/05 00:38:05;;;;;;;3.15;1.98;;;;;;;26.04;40.47;99099.41;343183;28;1390;-70
2022/08/05 00:38:20;;;;;;;3.67;1.90;;;;;;;26.02;40.54;99101.41;342017;28;1231;-70
2022/08/05 00:38:39;;;;;;;3.03;2.00;;;;;;;26.06;40.46;99100.09;342184;28;1804;-70
2022/08/05 00:38:51;;;;;;;2.88;2.10;;;;;;;26.09;40.75;99097.06;342748;28;1707;-70
2022/08/05 00:39:04;;;;;;;2.70;2.10;;;;;;;26.13;40.33;99102.91;342547;28;1815;-71
2022/08/05 00:39:24;;;;;;;2.20;2.00;;;;;;;26.13;40.84;99093.09;342149;28;1210;-71
2022/08/05 00:39:36;;;;;;;3.40;2.05;;;;;;;26.14;40.88;99100.09;341915;28;1955;-71
2022/08/05 00:40:08;;;;;;;3.70;1.90;;;;;;;26.17;41.55;99102.41;342376;28;1079;-71
2022/08/05 00:40:23;;;;;;;2.33;1.90;;;;;;;26.19;41.55;99097.75;342626;28;1828;-71
2022/08/05 00:40:51;;;;;;;2.90;2.00;;;;;;;26.19;41.22;99097.75;343493;28;1642;-71
2022/08/05 00:41:06;;;;;;;2.95;1.90;;;;;;;26.18;41.23;99090.78;342474;28;1213;-70
2022/08/05 00:41:30;;;;;;;5.05;2.10;;;;;;;26.18;40.34;99096.09;342365;28;1148;-70
2022/08/05 00:42:02;;;;;;;2.38;2.17;;;;;;;26.17;40.58;99089.09;341970;28;1452;-71
2022/08/05 00:42:15;;;;;;;2.40;2.20;;;;;;;26.18;41.15;99098.78;342197;28;1679;-71
2022/08/05 00:42:43;;;;;;;2.33;2.00;;;;;;;26.22;41.73;99097.44;341667;28;2001;-71
2022/08/05 00:43:01;;;;;;;3.22;2.08;;;;;;;26.25;41.40;99099.75;341466;28;1175;-71
2022/08/05 00:43:19;;;;;;;2.95;2.03;;;;;;;26.26;41.95;99097.97;340783;29;1224;-71
2022/08/05 00:43:31;;;;;;;4.47;2.10;;;;;;;26.26;41.67;99096.13;341267;29;873;-71
2022/08/05 00:44:01;;;;;;;3.40;2.10;;;;;;;26.27;41.42;99100.44;341864;28;1632;-70
2022/08/05 00:44:13;;;;;;;2.95;2.20;;;;;;;26.29;41.55;99103.75;342127;28;1566;-70
2022/08/05 00:44:25;;;;;;;3.17;2.13;;;;;;;26.30;41.85;99100.13;341958;28;1317;-70
2022/08/05 00:44:42;;;;;;;3.65;1.92;;;;;;;26.34;41.96;99099.78;342056;28;2359;-71
2022/08/05 00:44:54;;;;;;;3.20;1.98;;;;;;;26.35;41.96;99102.28;342590;28;1743;-71
2022/08/05 00:45:08;;;;;;;3.30;2.10;;;;;;;26.37;41.11;99099.47;342203;28;1788;-70
2022/08/05 00:45:22;;;;;;;3.00;2.10;;;;;;;26.37;41.55;99107.44;342794;28;1725;-71
2022/08/05 00:45:50;;;;;;;2.42;1.80;;;;;;;26.39;40.54;99098.28;343365;28;1560;-71
2022/08/05 00:46:03;;;;;;;3.95;2.10;;;;;;;26.41;40.62;99106.13;342329;28;1304;-71
2022/08/05 00:46:15;;;;;;;3.67;2.17;;;;;;;26.41;40.34;99106.13;342477;28;1071;-71
2022/08/05 00:46:27;;;;;;;3.03;2.20;;;;;;;26.43;40.12;99107.63;342261;28;1042;-71
2022/08/05 00:46:54;;;;;;;3.35;1.92;;;;;;;26.45;39.71;99105.63;343186;28;1781;-72
2022/08/05 00:47:16;;;;;;;3.05;1.92;;;;;;;26.31;40.02;99101.75;342496;28;1283;-71
2022/08/05 00:47:29;;;;;;;3.22;2.00;;;;;;;26.34;39.88;99105.09;342486;28;1140;-71
2022/08/05 00:48:01;;;;;;;2.33;2.13;;;;;;;26.31;39.69;99101.75;342101;28;2142;-70
2022/08/05 00:48:21;;;;;;;3.70;2.10;;;;;;;26.29;40.17;99109.09;342818;28;1813;-70
2022/08/05 00:48:42;;;;;;;5.22;2.00;;;;;;;26.34;40.11;99100.63;342636;28;1117;-70
2022/08/05 00:49:02;;;;;;;2.50;1.98;;;;;;;26.39;39.64;99102.78;342229;28;1712;-70
2022/08/05 00:49:18;;;;;;;2.45;2.10;;;;;;;26.38;40.34;99104.63;342278;28;1020;-70
2022/08/05 00:49:30;;;;;;;4.32;2.20;;;;;;;26.40;40.08;99099.09;342489;28;1055;-70
2022/08/05 00:49:55;;;;;;;2.75;2.00;;;;;;;26.43;40.17;99101.47;343428;28;1678;-71
2022/08/05 00:50:09;;;;;;;2.28;2.05;;;;;;;26.44;40.18;99105.78;343554;28;1280;-71
2022/08/05 00:50:21;;;;;;;3.67;1.98;;;;;;;26.43;40.35;99104.94;341635;28;2065;-71
2022/08/05 00:50:38;;;;;;;5.03;1.90;;;;;;;26.44;40.05;99106.63;342762;28;1779;-71
2022/08/05 00:50:53;;;;;;;5.30;2.00;;;;;;;26.46;39.84;99103.78;342366;28;1683;-71
2022/08/05 00:51:04;;;;;;;4.30;2.00;;;;;;;26.43;39.94;99096.94;343149;28;1345;-70
2022/08/05 00:51:20;;;;;;;2.92;1.90;;;;;;;26.30;40.68;99107.28;343245;28;1011;-70
2022/08/05 00:51:52;;;;;;;4.93;2.15;;;;;;;26.33;40.72;99100.78;343102;28;1639;-71
2022/08/05 00:52:05;;;;;;;5.55;2.03;;;;;;;26.34;40.84;99099.78;342068;28;1139;-71
2022/08/05 00:52:21;;;;;;;3.88;1.92;;;;;;;26.37;40.85;99102.13;342587;28;1079;-71
2022/08/05 00:52:39;;;;;;;4.90;2.10;;;;;;;26.31;40.58;99099.09;341454;28;1784;-70
2022/08/05 00:52:52;;;;;;;4.43;2.20;;;;;;;26.34;40.54;99100.63;343099;28;1576;-70
2022/08/05 00:53:06;;;;;;;5.22;2.00;;;;;;;26.38;40.62;99098.44;342312;28;1757;-70
2022/08/05 00:53:38;;;;;;;3.47;2.30;;;;;;;26.40;40.77;99096.44;342646;28;1766;-70
2022/08/05 00:54:13;;;;;;;3.25;2.05;;;;;;;26.38;41.15;99101.09;342139;28;1549;-70
2022/08/05 00:54:28;;;;;;;2.80;1.90;;;;;;;26.40;41.09;99099.09;342340;28;1210;-70
2022/08/05 00:54:40;;;;;;;2.70;2.03;;;;;;;26.36;42.16;99098.63;342031;28;1752;-70
2022/08/05 00:54:54;;;;;;;2.90;2.25;;;;;;;26.40;41.43;99104.44;342848;28;1486;-70
2022/08/05 00:55:07;;;;;;;4.07;2.38;;;;;;;26.40;41.83;99099.97;342232;28;1174;-70
2022/08/05 00:55:19;;;;;;;4.45;2.33;;;;;;;26.41;41.58;99106.13;342604;28;1736;-71
2022/08/05 00:55:31;;;;;;;4.45;2.30;;;;;;;26.29;42.41;99103.75;342711;28;1253;-70
2022/08/05 00:55:53;;;;;;;5.20;2.33;;;;;;;26.37;42.13;99096.78;343234;28;1679;-70
2022/08/05 00:56:06;;;;;;;5.50;2.20;;;;;;;26.37;42.29;99105.59;342578;28;1264;-70
2022/08/05 00:56:19;;;;;;;4.32;2.22;;;;;;;26.28;43.00;99102.13;342608;28;1067;-70
2022/08/05 00:56:33;;;;;;;4.45;2.20;;;;;;;26.31;42.75;99096.44;342937;28;1319;-70
2022/08/05 00:56:45;;;;;;;4.45;2.00;;;;;;;26.24;43.13;99100.78;342915;28;1694;-70
2022/08/05 00:57:03;;;;;;;4.10;2.10;;;;;;;26.20;43.27;99103.91;342247;28;1341;-70
2022/08/05 00:57:15;;;;;;;3.47;2.10;;;;;;;26.23;43.34;99104.41;342737;28;1543;-70
2022/08/05 00:57:32;;;;;;;4.25;2.20;;;;;;;26.30;43.49;99105.44;342440;28;1115;-71
2022/08/05 00:58:04;;;;;;;4.07;2.00;;;;;;;26.37;43.58;99110.13;342175;28;1601;-70
2022/08/05 00:58:17;;;;;;;5.22;2.10;;;;;;;26.34;43.61;99105.09;342159;28;1206;-70
2022/08/05 00:58:30;;;;;;;7.28;2.30;;;;;;;26.38;43.50;99101.09;342005;28;1926;-70
2022/08/05 00:58:42;;;;;;;5.63;2.28;;;;;;;26.42;43.46;99103.28;342459;28;1797;-71
2022/08/05 00:58:56;;;;;;;4.82;2.00;;;;;;;26.43;43.70;99109.44;343263;28;1905;-71
2022/08/05 00:59:11;;;;;;;4.65;2.00;;;;;;;26.49;43.58;99104.28;342352;28;1019;-71
2022/08/05 00:59:23;;;;;;;5.43;2.30;;;;;;;26.51;44.12;99101.47;342267;28;1638;-70
2022/08/05 00:59:35;;;;;;;4.90;2.33;;;;;;;26.53;43.93;99104.78;342296;28;1714;-70
2022/08/05 00:59:56;;;;;;;4.38;2.50;;;;;;;26.61;43.66;99104.00;342625;28;1497;-71
2022/08/05 01:00:09;;;;;;;4.50;2.55;;;;;;;26.66;43.33;99107.84;342905;28;1834;-70
2022/08/05 01:00:24;;;;;;;5.50;2.30;;;;;;;26.42;44.00;99108.63;342280;28;1744;-70
2022/08/05 01:00:38;;;;;;;7.07;2.20;;;;;;;26.39;43.92;99108.13;341559;28;1881;-70
2022/08/05 01:00:50;;;;;;;4.55;2.10;;;;;;;26.36;44.09;99101.28;342729;28;1523;-70
2022/08/05 01:01:02;;;;;;;4.28;2.25;;;;;;;26.39;44.23;99108.13;343347;28;1304;-70
2022/08/05 01:01:20;;;;;;;5.80;2.30;;;;;;;26.44;44.00;99105.78;342302;28;1712;-71
2022/08/05 01:01:51;;;;;;;6.43;2.10;;;;;;;26.58;44.31;99102.50;342908;28;1578;-71
2022/08/05 01:02:04;;;;;;;7.10;2.00;;;;;;;26.64;43.96;99099.19;342687;28;1184;-70
2022/08/05 01:02:19;;;;;;;5.65;2.08;;;;;;;26.69;43.57;99104.00;342424;28;2080;-71
2022/08/05 01:02:35;;;;;;;4.22;2.10;;;;;;;26.76;43.61;99104.16;342730;28;1774;-71
2022/08/05 01:02:47;;;;;;;4.50;2.03;;;;;;;26.79;43.67;99104.66;343483;28;1169;-70
2022/08/05 01:03:01;;;;;;;8.48;2.15;;;;;;;26.82;43.74;99103.47;343119;28;1402;-70
2022/08/05 01:03:18;;;;;;;8.70;2.10;;;;;;;26.87;44.17;99103.81;343404;28;1099;-70
2022/08/05 01:03:34;;;;;;;5.07;2.00;;;;;;;26.89;43.92;99104.47;343374;28;1080;-70
2022/08/05 01:03:46;;;;;;;4.43;2.10;;;;;;;26.92;43.85;99109.47;343125;28;1621;-70
2022/08/05 01:04:02;;;;;;;3.25;2.10;;;;;;;26.96;43.40;99109.97;342518;28;1272;-71
2022/08/05 01:04:24;;;;;;;7.05;2.20;;;;;;;26.99;43.82;99105.13;342565;28;1150;-71
2022/08/05 01:04:40;;;;;;;5.97;2.08;;;;;;;26.99;43.66;99104.31;342028;28;1761;-70
2022/08/05 01:04:53;;;;;;;3.53;2.00;;;;;;;26.99;43.85;99099.81;343282;28;1688;-70
2022/08/05 01:05:05;;;;;;;4.22;2.00;;;;;;;27.01;44.15;99097.78;342485;28;1082;-70
2022/08/05 01:05:21;;;;;;;4.97;2.20;;;;;;;27.01;43.99;99108.47;342310;28;1886;-70
2022/08/05 01:05:34;;;;;;;6.05;2.15;;;;;;;27.02;43.92;99104.78;342789;28;1697;-70
2022/08/05 01:05:46;;;;;;;4.78;2.28;;;;;;;27.05;43.82;99107.13;343539;28;1296;-71
2022/08/05 01:05:58;;;;;;;3.00;2.20;;;;;;;27.04;43.69;99102.78;343236;28;1310;-70
2022/08/05 01:06:11;;;;;;;4.90;2.13;;;;;;;27.05;44.10;99104.47;342013;28;1672;-70
2022/08/05 01:06:26;;;;;;;5.35;2.20;;;;;;;27.07;44.01;99101.63;343460;28;1614;-70
2022/08/05 01:06:46;;;;;;;3.45;2.22;;;;;;;27.10;43.62;99096.78;343029;28;1802;-71
2022/08/05 01:06:59;;;;;;;3.30;2.20;;;;;;;27.13;44.11;99110.78;342179;28;1694;-71
2022/08/05 01:07:16;;;;;;;3.60;2.10;;;;;;;27.10;44.30;99107.47;343566;28;1493;-71
2022/08/05 01:07:28;;;;;;;5.53;2.10;;;;;;;27.10;43.88;99102.13;343416;28;1034;-71
2022/08/05 01:07:42;;;;;;;5.53;2.08;;;;;;;27.14;43.67;99099.09;342440;28;2021;-70
2022/08/05 01:08:14;;;;;;;5.82;2.33;;;;;;;27.18;44.40;99097.75;342164;28;1309;-70
2022/08/05 01:08:46;;;;;;;5.32;2.40;;;;;;;27.22;44.19;99104.41;342640;28;1498;-71
2022/08/05 01:08:59;;;;;;;5.22;2.10;;;;;;;27.18;44.06;99103.09;342319;28;1384;-70
2022/08/05 01:09:13;;;;;;;4.20;1.90;;;;;;;27.05;44.44;99103.63;342374;28;1106;-70
2022/08/05 01:09:30;;;;;;;4.72;2.00;;;;;;;26.92;44.44;99108.63;342484;28;1079;-70
2022/08/05 01:09:42;;;;;;;5.70;2.03;;;;;;;26.97;44.72;99109.81;342457;28;1710;-70
2022/08/05 01:09:55;;;;;;;4.88;2.20;;;;;;;26.92;44.75;99114.78;343228;28;1813;-70
2022/08/05 01:10:10;;;;;;;4.07;2.25;;;;;;;26.96;44.92;99113.47;342317;28;1749;-70
2022/08/05 01:10:34;;;;;;;7.38;2.08;;;;;;;26.98;44.34;99114.13;342937;28;1722;-70
2022/08/05 01:10:57;;;;;;;7.65;2.20;;;;;;;26.99;45.06;99114.97;342644;28;1051;-71
2022/08/05 01:11:18;;;;;;;6.97;2.42;;;;;;;26.96;45.25;99113.47;342377;28;1797;-71
2022/08/05 01:11:38;;;;;;;10.75;2.30;;;;;;;27.00;45.30;99116.63;341876;28;1181;-72
2022/08/05 01:11:54;;;;;;;9.98;2.40;;;;;;;27.05;45.15;99109.78;343163;28;1504;-71
2022/08/05 01:12:10;;;;;;;6.43;2.45;;;;;;;27.10;44.78;99107.47;342466;28;1019;-71
2022/08/05 01:12:29;;;;;;;5.15;2.10;;;;;;;27.12;44.64;99114.44;343089;28;1306;-71
2022/08/05 01:12:47;;;;;;;4.25;2.00;;;;;;;27.19;44.62;99110.09;342185;28;1795;-71
2022/08/05 01:13:19;;;;;;;8.75;2.65;;;;;;;27.23;44.68;99111.44;342048;28;1510;-71
2022/08/05 01:13:47;;;;;;;11.80;2.67;;;;;;;27.22;44.74;99115.09;342568;28;1160;-71
2022/08/05 01:14:19;;;;;;;9.32;2.42;;;;;;;27.07;44.90;99113.13;342109;28;1265;-70
2022/08/05 01:14:47;;;;;;;6.13;2.13;;;;;;;26.83;45.50;99118.50;342073;28;1055;-70
2022/08/05 01:15:07;;;;;;;9.43;2.53;;;;;;;26.79;45.62;99125.16;342570;28;1280;-70
2022/08/05 01:15:46;;;;;;;6.50;2.05;;;;;;;26.84;45.80;99118.34;342525;28;1777;-71
2022/08/05 01:16:03;;;;;;;7.05;2.20;;;;;;;26.87;45.93;99123.31;343219;28;1330;-71
2022/08/05 01:16:36;;;;;;;7.07;2.30;;;;;;;26.93;45.68;99121.81;342248;28;1106;-71
2022/08/05 01:16:58;;;;;;;3.80;2.20;;;;;;;27.04;46.07;99118.78;342595;28;886;-70
2022/08/05 01:17:28;;;;;;;7.38;2.20;;;;;;;27.12;45.29;99119.78;341865;28;1697;-70
2022/08/05 01:17:48;;;;;;;4.65;2.13;;;;;;;27.14;45.39;99112.44;342500;28;1611;-72
2022/08/05 01:18:11;;;;;;;5.13;2.30;;;;;;;27.16;45.48;99110.44;342415;28;1289;-70
2022/08/05 01:18:32;;;;;;;6.75;2.40;;;;;;;27.20;45.49;99117.09;342656;28;1370;-70
2022/08/05 01:18:49;;;;;;;7.65;2.75;;;;;;;27.20;45.26;99117.09;342219;28;1015;-71
2022/08/05 01:19:22;;;;;;;7.13;2.47;;;;;;;26.99;45.73;99115.81;342325;28;1055;-70
2022/08/05 01:20:24;;;;;;;4.60;2.15;;;;;;;27.15;45.10;99117.63;342665;28;1408;-72
2022/08/05 01:21:18;;;;;;;7.53;2.30;;;;;;;27.15;45.66;99108.78;342010;28;1712;-72
2022/08/05 01:21:50;;;;;;;5.38;2.88;;;;;;;27.21;45.35;99110.78;341418;28;1571;-70
2022/08/05 01:22:14;;;;;;;4.85;2.22;;;;;;;27.27;45.11;99110.13;342308;28;1307;-71
2022/08/05 01:22:50;;;;;;;7.70;2.30;;;;;;;27.27;45.13;99107.44;342065;28;1164;-70
2022/08/05 01:23:08;;;;;;;10.30;2.42;;;;;;;27.25;45.42;99104.13;342420;28;1281;-70
2022/08/05 01:23:38;;;;;;;11.00;2.40;;;;;;;27.17;45.74;99101.44;342167;28;1290;-71
2022/08/05 01:24:04;;;;;;;5.82;2.20;;;;;;;27.21;45.69;99113.44;342834;28;1608;-71
2022/08/05 01:24:48;;;;;;;6.35;2.28;;;;;;;27.01;46.06;99113.81;342242;28;1757;-70
2022/08/05 01:25:38;;;;;;;8.18;2.50;;;;;;;27.12;45.71;99109.13;342352;28;1800;-70
2022/08/05 01:26:06;;;;;;;8.75;2.50;;;;;;;27.17;45.65;99106.78;342529;28;1174;-71
2022/08/05 01:26:32;;;;;;;8.60;2.30;;;;;;;27.20;46.16;99101.91;342383;28;1046;-71
2022/08/05 01:27:05;;;;;;;12.18;2.60;;;;;;;27.30;45.64;99107.09;343602;28;1722;-71
2022/08/05 01:28:04;;;;;;;5.00;2.22;;;;;;;27.17;46.05;99104.13;341459;28;1780;-70
2022/08/05 01:28:36;;;;;;;7.88;2.65;;;;;;;26.75;47.29;99102.50;342086;28;1176;-70
2022/08/05 01:28:56;;;;;;;9.32;2.65;;;;;;;26.89;46.60;99110.63;342078;28;1686;-71
2022/08/05 01:29:27;;;;;;;7.65;2.42;;;;;;;26.97;46.66;99106.31;342292;28;1193;-70
2022/08/05 01:29:45;;;;;;;5.80;2.80;;;;;;;26.96;46.83;99108.13;342251;28;1682;-70
2022/08/05 01:30:02;;;;;;;6.57;2.67;;;;;;;26.99;46.70;99102.47;343531;28;1922;-70
2022/08/05 01:30:15;;;;;;;7.70;2.60;;;;;;;27.08;46.34;99104.13;343206;28;1660;-71
2022/08/05 01:30:35;;;;;;;7.85;2.50;;;;;;;27.07;46.16;99101.63;342619;28;2175;-71
2022/08/05 01:31:03;;;;;;;5.75;2.67;;;;;;;27.15;46.56;99103.44;343151;28;1377;-71
2022/08/05 01:31:33;;;;;;;7.47;3.10;;;;;;;27.05;46.58;99108.97;342339;28;1019;-70
2022/08/05 01:32:01;;;;;;;7.35;2.55;;;;;;;26.91;46.99;99105.16;342322;28;1332;-71
2022/08/05 01:32:21;;;;;;;5.72;2.53;;;;;;;26.79;46.96;99104.66;342509;28;1648;-71
2022/08/05 01:32:37;;;;;;;7.07;2.50;;;;;;;26.86;47.66;99104.81;342091;28;1043;-71
2022/08/05 01:32:52;;;;;;;7.10;2.50;;;;;;;26.95;47.56;99109.13;342506;28;1692;-71